Time;durP1;ratioP1;P1;durP2;ratioP2;P2;SDS_P1;SDS_P2;PMS_P1;PMS_P2;Temp;Humidity;BMP_temperature;BMP_pressure;BME280_temperature;BME280_humidity;BME280_pressure;Samples;Min_cycle;Max_cycle;Signal;HPM_P1;HPM_P2
2024/02/19 00:02:20;;;;;;;1.92;1.80;;;;;;;6.36;100.00;100793.03;10456765;28;20029;-79
2024/02/19 00:07:24;;;;;;;3.03;1.52;;;;;;;6.50;100.00;100792.25;10467169;28;20512;-79
2024/02/19 00:12:27;;;;;;;2.20;2.00;;;;;;;6.55;100.00;100798.19;10465217;28;20603;-79
2024/02/19 00:17:30;;;;;;;1.70;1.42;;;;;;;6.24;100.00;100802.59;10466579;28;20485;-79
2024/02/19 00:22:34;;;;;;;2.20;2.00;;;;;;;6.26;100.00;100826.56;10462049;28;20388;-79
2024/02/19 00:27:37;;;;;;;1.70;1.55;;;;;;;6.53;100.00;100837.47;10454389;28;20067;-79
2024/02/19 00:32:41;;;;;;;1.75;1.65;;;;;;;6.49;100.00;100854.59;10482210;28;20101;-78
2024/02/19 00:37:46;;;;;;;4.57;1.70;;;;;;;6.75;100.00;100870.00;10468896;28;20053;-79
2024/02/19 00:42:49;;;;;;;1.40;1.30;;;;;;;6.59;100.00;100885.16;10463380;28;20051;-79
2024/02/19 00:47:52;;;;;;;0.65;0.60;;;;;;;6.61;100.00;100892.16;10461244;28;20077;-79
2024/02/19 00:52:56;;;;;;;0.35;0.30;;;;;;;6.35;100.00;100892.72;10460739;28;20045;-79
2024/02/19 00:58:00;;;;;;;0.30;0.30;;;;;;;6.33;100.00;100914.16;10463470;28;20124;-79
2024/02/19 01:03:04;;;;;;;0.73;0.30;;;;;;;6.65;100.00;100921.34;10462915;28;20075;-78
2024/02/19 01:08:09;;;;;;;1.85;0.40;;;;;;;6.29;100.00;100923.28;10460218;28;20068;-79
2024/02/19 01:13:16;;;;;;;0.55;0.40;;;;;;;6.56;100.00;100936.91;10451748;28;20045;-81
2024/02/19 01:18:19;;;;;;;0.38;0.38;;;;;;;6.28;100.00;100950.03;10450301;28;20425;-80
2024/02/19 01:23:23;;;;;;;1.40;0.60;;;;;;;6.34;100.00;100969.25;10449191;28;20053;-81
2024/02/19 01:28:27;;;;;;;3.58;1.08;;;;;;;6.37;100.00;100973.56;10464289;28;20411;-81
2024/02/19 01:33:30;;;;;;;1.55;1.00;;;;;;;6.54;100.00;100972.66;10454071;28;20053;-81
2024/02/19 01:38:35;;;;;;;3.70;0.98;;;;;;;5.98;100.00;100984.53;10450788;28;20044;-80
2024/02/19 01:43:38;;;;;;;3.05;1.02;;;;;;;6.09;100.00;100996.38;10451597;28;20112;-79
2024/02/19 01:48:42;;;;;;;6.13;1.52;;;;;;;5.70;100.00;101018.84;10467132;28;20044;-80
2024/02/19 01:53:47;;;;;;;2.53;1.92;;;;;;;6.09;100.00;101020.41;10447712;28;20049;-81
2024/02/19 01:58:50;;;;;;;4.60;2.10;;;;;;;5.89;100.00;101037.41;10456418;28;20160;-80
2024/02/19 02:03:54;;;;;;;4.78;2.22;;;;;;;6.29;100.00;101047.84;10457743;28;20041;-81
2024/02/19 02:08:59;;;;;;;7.55;1.90;;;;;;;5.72;100.00;101056.94;10451240;28;20040;-81
2024/02/19 02:14:02;;;;;;;4.25;1.45;;;;;;;5.94;100.00;101066.50;10450982;28;20044;-80
2024/02/19 02:19:05;;;;;;;7.20;1.98;;;;;;;5.53;100.00;101072.09;10447814;28;20041;-80
2024/02/19 02:24:10;;;;;;;6.65;1.65;;;;;;;5.78;100.00;101077.09;10450827;28;20122;-81
2024/02/19 02:29:14;;;;;;;4.15;1.25;;;;;;;5.66;100.00;101080.38;10451590;28;20052;-82
2024/02/19 02:34:17;;;;;;;6.88;1.52;;;;;;;5.64;100.00;101082.25;10445699;28;20041;-80
2024/02/19 02:39:20;;;;;;;4.90;1.65;;;;;;;5.78;100.00;101095.75;10456114;28;20068;-81
2024/02/19 02:44:25;;;;;;;3.00;1.50;;;;;;;6.15;100.00;101113.44;10461485;28;20051;-80
2024/02/19 02:49:28;;;;;;;6.25;2.30;;;;;;;5.86;100.00;101117.56;10454691;28;20073;-80
2024/02/19 02:54:31;;;;;;;4.53;1.85;;;;;;;5.88;100.00;101110.34;10452573;28;20052;-80
2024/02/19 02:59:36;;;;;;;4.47;2.08;;;;;;;5.78;100.00;101135.75;10436965;28;20045;-81
2024/02/19 03:04:39;;;;;;;4.47;1.48;;;;;;;5.53;100.00;101129.88;10455170;28;20037;-80
2024/02/19 03:09:42;;;;;;;4.68;1.15;;;;;;;5.39;100.00;101128.75;10447115;28;20047;-80
2024/02/19 03:14:47;;;;;;;2.25;0.80;;;;;;;5.57;100.00;101131.44;10455641;28;20052;-80
2024/02/19 03:19:50;;;;;;;5.13;1.40;;;;;;;5.28;100.00;101142.56;10445841;28;20041;-80
2024/02/19 03:24:53;;;;;;;6.07;1.10;;;;;;;5.41;100.00;101140.19;10449698;28;20045;-81
2024/02/19 03:29:57;;;;;;;4.10;1.50;;;;;;;5.45;100.00;101147.09;10443092;28;20041;-80
2024/02/19 03:35:00;;;;;;;6.18;1.63;;;;;;;5.21;100.00;101154.47;10449532;28;20056;-80
2024/02/19 03:40:06;;;;;;;4.63;1.50;;;;;;;5.06;100.00;101148.03;10452420;28;20047;-79
2024/02/19 03:45:11;;;;;;;3.47;1.23;;;;;;;5.28;100.00;101150.56;10450233;28;20048;-81
2024/02/19 03:50:16;;;;;;;6.68;1.33;;;;;;;5.60;100.00;101161.50;10451978;28;20113;-81
2024/02/19 03:55:20;;;;;;;4.90;1.25;;;;;;;5.33;100.00;101160.16;10454433;28;20115;-80
2024/02/19 04:00:24;;;;;;;4.70;1.40;;;;;;;4.97;100.00;101166.22;10461185;28;20404;-82
2024/02/19 04:05:27;;;;;;;6.28;1.10;;;;;;;5.02;100.00;101177.56;10466364;28;20049;-81
2024/02/19 04:10:30;;;;;;;4.80;1.50;;;;;;;5.13;100.00;101185.03;10468454;28;20069;-81
2024/02/19 04:15:35;;;;;;;13.32;2.72;;;;;;;4.88;100.00;101195.88;10461042;28;20048;-78
2024/02/19 04:20:38;;;;;;;6.68;2.20;;;;;;;5.46;100.00;101199.47;10467133;28;20048;-84
2024/02/19 04:25:41;;;;;;;15.05;2.70;;;;;;;5.58;100.00;101206.03;10471251;28;20049;-82
2024/02/19 04:30:45;;;;;;;11.55;2.72;;;;;;;5.35;100.00;101209.78;10452177;28;20056;-82
2024/02/19 04:35:49;;;;;;;6.15;2.50;;;;;;;5.53;100.00;101209.84;10459956;28;20045;-84
2024/02/19 04:40:52;;;;;;;11.95;2.17;;;;;;;4.95;100.00;101223.97;10466722;28;20112;-82
2024/02/19 04:45:56;;;;;;;13.07;1.85;;;;;;;4.94;100.00;101230.25;10454587;28;20056;-81
2024/02/19 04:50:59;;;;;;;3.85;1.65;;;;;;;4.90;100.00;101223.31;10462006;28;20045;-81
2024/02/19 04:56:02;;;;;;;5.20;1.52;;;;;;;5.28;100.00;101214.50;10456284;28;20057;-80
2024/02/19 05:01:07;;;;;;;4.80;1.83;;;;;;;5.15;100.00;101223.13;10471326;28;20071;-80
2024/02/19 05:06:10;;;;;;;10.82;2.30;;;;;;;5.41;100.00;101221.94;10460662;28;20045;-81
2024/02/19 05:11:14;;;;;;;6.30;1.23;;;;;;;4.97;100.00;101212.34;10440756;28;20053;-81
2024/02/19 05:16:19;;;;;;;5.40;1.30;;;;;;;5.39;100.00;101226.47;10460994;28;20056;-83
2024/02/19 05:21:23;;;;;;;6.07;1.00;;;;;;;5.14;100.00;101237.38;10458324;28;20045;-80
2024/02/19 05:26:27;;;;;;;4.10;1.05;;;;;;;5.22;100.00;101233.44;10455865;28;20045;-81
2024/02/19 05:31:35;;;;;;;3.90;0.75;;;;;;;5.44;100.00;101241.31;10455106;28;20398;-79
2024/02/19 05:36:38;;;;;;;4.35;1.38;;;;;;;5.10;100.00;101247.31;10460973;28;20057;-80
2024/02/19 05:41:41;;;;;;;5.75;1.30;;;;;;;5.26;100.00;101242.13;10456831;28;20436;-83
2024/02/19 05:46:46;;;;;;;2.80;1.38;;;;;;;5.25;100.00;101256.41;10450042;28;20374;-79
2024/02/19 05:51:49;;;;;;;5.35;2.17;;;;;;;5.09;100.00;101250.88;10432716;28;20416;-79
2024/02/19 05:56:52;;;;;;;4.47;2.55;;;;;;;5.41;100.00;101268.09;10456449;28;20060;-82
2024/02/19 06:01:57;;;;;;;9.40;4.18;;;;;;;5.33;100.00;101272.06;10443523;28;20043;-80
2024/02/19 06:07:01;;;;;;;7.95;3.63;;;;;;;5.56;100.00;101274.53;10444574;28;20068;-81
2024/02/19 06:12:05;;;;;;;4.47;2.83;;;;;;;5.46;100.00;101279.44;10451150;28;20098;-82
2024/02/19 06:17:10;;;;;;;4.93;3.00;;;;;;;5.67;100.00;101285.53;10431624;28;20360;-82
2024/02/19 06:22:14;;;;;;;5.97;2.85;;;;;;;5.62;100.00;101284.03;10456046;28;20048;-82
2024/02/19 06:27:19;;;;;;;6.88;3.40;;;;;;;5.26;100.00;101290.94;10457579;28;20041;-80
2024/02/19 06:32:24;;;;;;;4.07;2.58;;;;;;;5.41;100.00;101302.75;10445118;28;20045;-84
2024/02/19 06:37:27;;;;;;;3.50;2.30;;;;;;;5.53;100.00;101298.66;10430028;28;20056;-82
2024/02/19 06:42:30;;;;;;;6.47;3.22;;;;;;;5.72;100.00;101302.19;10456184;28;20037;-81
2024/02/19 06:47:34;;;;;;;6.13;3.45;;;;;;;5.74;100.00;101307.47;10455069;28;20147;-82
2024/02/19 06:52:39;;;;;;;5.93;3.63;;;;;;;5.82;100.00;101310.66;10457249;28;20106;-81
2024/02/19 06:57:42;;;;;;;5.78;3.72;;;;;;;5.97;100.00;101317.06;10453320;28;20901;-80
2024/02/19 07:02:47;;;;;;;6.45;3.63;;;;;;;5.87;100.00;101323.75;10444970;28;20076;-81
2024/02/19 07:07:50;;;;;;;7.10;3.85;;;;;;;5.91;100.00;101325.34;10448174;28;20049;-82
2024/02/19 07:12:53;;;;;;;8.50;3.40;;;;;;;5.93;100.00;101332.34;10456949;28;20037;-80
2024/02/19 07:17:57;;;;;;;4.60;3.38;;;;;;;5.93;100.00;101331.50;10457441;28;20412;-83
2024/02/19 07:23:00;;;;;;;5.05;2.70;;;;;;;6.01;100.00;101347.16;10465649;28;20248;-82
2024/02/19 07:28:03;;;;;;;3.17;2.30;;;;;;;6.21;100.00;101351.53;10464167;28;20056;-81
2024/02/19 07:33:08;;;;;;;4.53;2.40;;;;;;;5.89;100.00;101351.22;10458619;28;20049;-81
2024/02/19 07:38:11;;;;;;;5.78;2.45;;;;;;;6.26;100.00;101353.03;10454890;28;20053;-82
2024/02/19 07:43:14;;;;;;;3.60;2.03;;;;;;;6.43;100.00;101359.38;10452306;28;20037;-81
2024/02/19 07:48:18;;;;;;;8.75;4.15;;;;;;;6.54;100.00;101351.72;10461568;28;20701;-82
2024/02/19 07:53:21;;;;;;;4.90;1.90;;;;;;;6.38;100.00;101364.94;10454506;28;20045;-82
2024/02/19 07:58:24;;;;;;;5.25;2.20;;;;;;;6.68;100.00;101365.25;10458035;28;20041;-82
2024/02/19 08:03:29;;;;;;;8.43;2.20;;;;;;;6.71;100.00;101369.56;10458418;28;20052;-81
2024/02/19 08:08:32;;;;;;;7.28;2.15;;;;;;;6.55;100.00;101372.13;10454117;28;20041;-80
2024/02/19 08:13:35;;;;;;;7.00;2.70;;;;;;;6.71;100.00;101375.78;10452263;28;20065;-82
2024/02/19 08:18:41;;;;;;;11.32;2.42;;;;;;;6.85;100.00;101364.41;10448469;28;20053;-81
2024/02/19 08:23:44;;;;;;;9.43;2.38;;;;;;;7.06;100.00;101371.38;10447049;28;20408;-81
2024/02/19 08:28:47;;;;;;;6.82;2.22;;;;;;;7.01;100.00;101352.03;10454260;28;20051;-82
2024/02/19 08:33:51;;;;;;;13.35;2.97;;;;;;;7.41;100.00;101346.47;10452340;28;20045;-80
2024/02/19 08:38:55;;;;;;;14.52;4.03;;;;;;;8.40;100.00;101340.16;10453571;28;20071;-81
2024/02/19 08:43:58;;;;;;;11.27;2.80;;;;;;;7.95;100.00;101353.34;10455578;28;20071;-81
2024/02/19 08:49:03;;;;;;;7.95;2.03;;;;;;;8.00;100.00;101355.75;10446735;28;20064;-81
2024/02/19 08:54:06;;;;;;;10.00;2.47;;;;;;;8.41;100.00;101349.91;10451487;28;20042;-81
2024/02/19 08:59:09;;;;;;;8.48;2.75;;;;;;;8.07;100.00;101340.22;10451110;28;20044;-82
2024/02/19 09:04:13;;;;;;;12.98;2.40;;;;;;;8.25;100.00;101341.00;10455108;28;20059;-82
2024/02/19 09:09:17;;;;;;;7.95;1.83;;;;;;;8.14;100.00;101326.41;10450957;28;20037;-80
2024/02/19 09:14:20;;;;;;;6.25;2.05;;;;;;;8.56;100.00;101324.09;10441365;28;20037;-82
2024/02/19 09:19:24;;;;;;;10.00;2.58;;;;;;;8.55;100.00;101333.06;10450697;28;20049;-80
2024/02/19 09:24:27;;;;;;;12.30;2.42;;;;;;;8.24;100.00;101333.94;10450902;28;20088;-80
2024/02/19 09:29:31;;;;;;;7.45;2.35;;;;;;;8.29;100.00;101329.19;10476465;28;20039;-81
2024/02/19 09:34:39;;;;;;;8.35;1.73;;;;;;;8.20;100.00;101345.75;10449863;28;20037;-81
2024/02/19 09:39:49;;;;;;;7.28;2.28;;;;;;;7.89;100.00;101355.47;10440524;28;20513;-81
2024/02/19 09:44:52;;;;;;;10.88;2.30;;;;;;;7.90;100.00;101347.38;10453803;28;20045;-82
2024/02/19 09:49:58;;;;;;;11.93;3.88;;;;;;;7.92;100.00;101349.94;10441154;28;20041;-80
2024/02/19 09:55:01;;;;;;;10.38;3.25;;;;;;;8.11;100.00;101342.63;10448648;28;20045;-80
2024/02/19 10:00:06;;;;;;;15.63;3.88;;;;;;;7.99;100.00;101347.81;10454673;28;20039;-80
2024/02/19 10:05:12;;;;;;;12.05;4.97;;;;;;;7.43;100.00;101340.09;10445716;28;20500;-80
2024/02/19 10:10:17;;;;;;;18.73;5.85;;;;;;;7.59;100.00;101347.28;10449768;28;20500;-80
2024/02/19 10:15:20;;;;;;;16.00;5.60;;;;;;;8.13;100.00;101335.38;10461301;28;20095;-81
2024/02/19 10:20:24;;;;;;;16.98;4.63;;;;;;;7.81;100.00;101331.81;10451329;28;20059;-82
2024/02/19 10:25:27;;;;;;;17.17;6.07;;;;;;;7.60;100.00;101339.19;10445236;28;20045;-83
2024/02/19 10:30:30;;;;;;;12.55;5.30;;;;;;;7.72;100.00;101341.19;10435581;28;20094;-84
2024/02/19 10:35:34;;;;;;;10.90;4.22;;;;;;;8.45;100.00;101335.41;10439116;28;20045;-79
2024/02/19 10:40:37;;;;;;;19.30;6.55;;;;;;;8.79;100.00;101320.06;10442042;28;20083;-83
2024/02/19 10:45:40;;;;;;;14.93;5.82;;;;;;;8.26;100.00;101340.06;10454611;28;20045;-84
2024/02/19 10:50:48;;;;;;;20.30;7.25;;;;;;;9.01;100.00;101333.06;10447216;28;20128;-83
2024/02/19 10:55:53;;;;;;;14.10;5.78;;;;;;;8.81;100.00;101331.56;10443534;28;20071;-81
2024/02/19 11:01:02;;;;;;;13.35;6.00;;;;;;;8.99;100.00;101333.16;10438150;28;20044;-79
2024/02/19 11:06:07;;;;;;;16.30;5.65;;;;;;;8.86;100.00;101328.59;10434248;28;20496;-79
2024/02/19 11:11:10;;;;;;;20.55;5.18;;;;;;;8.74;100.00;101325.69;10427622;28;20041;-84
2024/02/19 11:16:17;;;;;;;18.70;6.07;;;;;;;9.13;100.00;101331.47;10449211;28;20091;-80
2024/02/19 11:21:22;;;;;;;23.20;7.78;;;;;;;8.52;100.00;101320.72;10455030;28;20052;-78
2024/02/19 11:26:25;;;;;;;26.88;8.30;;;;;;;8.39;100.00;101307.16;10478129;28;20505;-78
2024/02/19 11:31:29;;;;;;;25.65;7.70;;;;;;;8.37;100.00;101310.88;10454893;28;20072;-82
2024/02/19 11:36:34;;;;;;;27.98;7.90;;;;;;;8.05;100.00;101305.50;10429688;28;20057;-83
2024/02/19 11:41:38;;;;;;;25.55;8.70;;;;;;;8.55;100.00;101298.25;10455257;28;20056;-78
2024/02/19 11:46:42;;;;;;;22.75;6.57;;;;;;;8.98;100.00;101290.38;10461833;28;20045;-80
2024/02/19 11:51:46;;;;;;;21.05;7.80;;;;;;;8.78;100.00;101281.72;10446686;28;20037;-80
2024/02/19 11:57:05;;;;;;;13.45;6.45;;;;;;;8.96;100.00;101279.72;10449403;28;20415;-82
2024/02/19 12:02:08;;;;;;;13.90;6.07;;;;;;;9.15;100.00;101270.59;10453195;28;20044;-83
2024/02/19 12:07:14;;;;;;;22.00;7.13;;;;;;;8.68;100.00;101272.47;10456844;28;20476;-82
2024/02/19 12:12:17;;;;;;;12.50;5.18;;;;;;;9.09;100.00;101271.81;10451015;28;20048;-81
2024/02/19 12:17:22;;;;;;;14.50;6.43;;;;;;;9.32;100.00;101267.72;10458433;28;20045;-80
2024/02/19 12:22:27;;;;;;;16.63;8.45;;;;;;;9.68;100.00;101255.66;10449209;28;20032;-79
2024/02/19 12:27:30;;;;;;;21.13;8.32;;;;;;;9.30;100.00;101256.25;10445969;28;20472;-82
2024/02/19 12:32:33;;;;;;;21.65;7.60;;;;;;;9.48;100.00;101244.34;10444701;28;20042;-81
2024/02/19 12:37:38;;;;;;;19.10;8.43;;;;;;;9.21;100.00;101257.66;10439569;28;20103;-82
2024/02/19 12:42:41;;;;;;;21.50;7.93;;;;;;;9.57;100.00;101242.94;10449488;28;20068;-82
2024/02/19 12:47:44;;;;;;;17.45;6.90;;;;;;;9.01;100.00;101237.44;10455412;28;20037;-81
2024/02/19 12:52:48;;;;;;;18.73;7.00;;;;;;;8.84;100.00;101235.78;10451977;28;20053;-84
2024/02/19 12:57:51;;;;;;;16.25;7.40;;;;;;;8.70;100.00;101234.91;10445150;28;20041;-83
2024/02/19 13:02:54;;;;;;;13.10;5.65;;;;;;;8.69;100.00;101239.38;10448578;28;20049;-83
2024/02/19 13:07:59;;;;;;;15.80;7.53;;;;;;;8.84;100.00;101232.25;10438738;28;20049;-81
2024/02/19 13:13:02;;;;;;;18.77;9.38;;;;;;;8.58;100.00;101231.13;10431742;28;20042;-81
2024/02/19 13:18:08;;;;;;;23.73;8.13;;;;;;;8.34;100.00;101236.94;10420011;28;20049;-81
2024/02/19 13:23:12;;;;;;;18.30;8.40;;;;;;;8.37;100.00;101226.06;10441402;28;20072;-80
2024/02/19 13:28:15;;;;;;;18.10;8.55;;;;;;;8.64;100.00;101225.41;10423072;28;20045;-79
2024/02/19 13:33:19;;;;;;;16.80;8.75;;;;;;;8.42;100.00;101225.78;10446921;28;20069;-82
2024/02/19 13:38:25;;;;;;;13.00;7.40;;;;;;;8.92;100.00;101223.75;10432667;28;20113;-82
2024/02/19 13:43:28;;;;;;;15.57;5.00;;;;;;;8.66;100.00;101214.59;10433366;28;20045;-81
2024/02/19 13:48:31;;;;;;;10.75;5.63;;;;;;;8.81;100.00;101211.88;10440449;28;20078;-81
2024/02/19 13:53:36;;;;;;;11.57;6.38;;;;;;;8.57;100.00;101216.03;10433933;28;20676;-82
2024/02/19 13:58:39;;;;;;;14.38;6.35;;;;;;;8.81;100.00;101219.91;10471797;28;20045;-81
2024/02/19 14:03:44;;;;;;;22.23;8.80;;;;;;;8.99;100.00;101212.53;10397808;28;20074;-81
2024/02/19 14:08:50;;;;;;;15.35;7.85;;;;;;;8.84;100.00;101206.31;10377696;28;20136;-81
2024/02/19 14:13:53;;;;;;;23.20;7.80;;;;;;;8.95;100.00;101200.31;10390285;28;20045;-81
2024/02/19 14:19:04;;;;;;;19.33;7.40;;;;;;;8.84;100.00;101192.91;10384261;28;20061;-80
2024/02/19 14:24:09;;;;;;;16.60;7.72;;;;;;;8.65;100.00;101186.09;10392051;28;20055;-80
2024/02/19 14:29:13;;;;;;;19.85;7.35;;;;;;;8.98;100.00;101192.06;10403860;28;20531;-80
2024/02/19 14:34:16;;;;;;;17.38;7.30;;;;;;;9.15;100.00;101168.72;10387251;28;20068;-81
2024/02/19 14:39:21;;;;;;;15.52;6.93;;;;;;;9.19;100.00;101178.31;10392426;28;20053;-82
2024/02/19 14:44:24;;;;;;;13.52;5.50;;;;;;;8.78;100.00;101181.72;10411044;28;20108;-80
2024/02/19 14:49:27;;;;;;;15.52;6.20;;;;;;;9.46;100.00;101170.31;10450061;28;20052;-81
2024/02/19 14:54:32;;;;;;;21.27;7.45;;;;;;;9.36;100.00;101169.19;10438443;28;20053;-79
2024/02/19 14:59:37;;;;;;;10.32;5.90;;;;;;;9.16;100.00;101167.75;10444699;28;20118;-81
2024/02/19 15:04:40;;;;;;;15.43;6.55;;;;;;;9.17;100.00;101166.81;10438827;28;20063;-81
2024/02/19 15:09:45;;;;;;;12.13;6.45;;;;;;;9.05;100.00;101158.59;10437872;28;20101;-81
2024/02/19 15:14:48;;;;;;;17.90;7.85;;;;;;;9.00;100.00;101162.50;10386301;28;20045;-81
2024/02/19 15:19:52;;;;;;;16.85;7.50;;;;;;;8.74;100.00;101161.44;10388596;28;20045;-81
2024/02/19 15:24:56;;;;;;;16.40;8.13;;;;;;;9.18;100.00;101150.63;10390723;28;20044;-82
2024/02/19 15:30:00;;;;;;;17.85;7.72;;;;;;;8.81;100.00;101158.28;10384391;28;20041;-81
2024/02/19 15:35:04;;;;;;;17.48;7.45;;;;;;;8.65;100.00;101164.69;10383760;28;20175;-82
2024/02/19 15:40:10;;;;;;;16.52;8.20;;;;;;;8.66;100.00;101151.16;10409123;28;20459;-81
2024/02/19 15:45:13;;;;;;;14.65;8.45;;;;;;;8.78;100.00;101152.25;10428697;28;20686;-81
2024/02/19 15:50:17;;;;;;;13.32;7.53;;;;;;;8.59;100.00;101152.53;10442918;28;20055;-80
2024/02/19 15:55:22;;;;;;;13.90;6.88;;;;;;;8.59;100.00;101147.16;10434926;28;21230;-80
2024/02/19 16:00:25;;;;;;;17.45;8.98;;;;;;;8.72;100.00;101152.63;10451601;28;20423;-80
2024/02/19 16:05:28;;;;;;;19.48;9.73;;;;;;;7.91;100.00;101147.59;10436676;28;20134;-80
2024/02/19 16:10:32;;;;;;;20.23;10.18;;;;;;;7.99;100.00;101148.00;10462854;28;20049;-80
2024/02/19 16:15:36;;;;;;;25.77;9.70;;;;;;;7.63;100.00;101135.78;10449503;28;20139;-81
2024/02/19 16:20:39;;;;;;;20.25;11.07;;;;;;;7.93;100.00;101141.19;10444401;28;20053;-80
2024/02/19 16:25:43;;;;;;;23.15;10.68;;;;;;;7.87;100.00;101138.00;10445316;28;20049;-80
2024/02/19 16:30:48;;;;;;;24.48;12.45;;;;;;;7.98;100.00;101140.03;10462629;28;20048;-80
2024/02/19 16:35:53;;;;;;;22.67;11.88;;;;;;;7.82;100.00;101134.75;10423224;28;20115;-81
2024/02/19 16:40:57;;;;;;;24.40;12.13;;;;;;;7.99;100.00;101133.75;10432532;28;20508;-79
2024/02/19 16:46:01;;;;;;;28.23;15.55;;;;;;;7.92;100.00;101127.88;10445109;28;20040;-79
2024/02/19 16:51:04;;;;;;;28.17;14.43;;;;;;;8.09;100.00;101134.94;10442161;28;20691;-80
2024/02/19 16:56:10;;;;;;;29.63;16.50;;;;;;;8.13;100.00;101123.09;10449027;28;20056;-82
2024/02/19 17:01:15;;;;;;;33.25;15.18;;;;;;;7.94;100.00;101134.88;10464393;28;20147;-79
2024/02/19 17:06:18;;;;;;;30.38;17.80;;;;;;;7.94;100.00;101128.66;10426483;28;20507;-80
2024/02/19 17:11:23;;;;;;;37.70;17.67;;;;;;;8.06;100.00;101135.97;10443672;28;20063;-80
2024/02/19 17:16:26;;;;;;;39.80;21.77;;;;;;;8.00;100.00;101133.66;10422735;28;20071;-79
2024/02/19 17:21:29;;;;;;;34.45;17.38;;;;;;;7.92;100.00;101139.44;10429943;28;20048;-79
2024/02/19 17:26:36;;;;;;;41.88;21.08;;;;;;;8.44;100.00;101142.69;10431543;28;20057;-81
2024/02/19 17:31:39;;;;;;;47.08;23.42;;;;;;;7.96;100.00;101132.13;10439468;28;20057;-80
2024/02/19 17:36:42;;;;;;;48.92;23.02;;;;;;;7.93;100.00;101135.84;10428402;28;20470;-80
2024/02/19 17:41:47;;;;;;;46.83;23.17;;;;;;;7.93;100.00;101129.63;10438420;28;20057;-79
2024/02/19 17:46:51;;;;;;;47.42;23.27;;;;;;;8.12;100.00;101134.78;10434163;28;20055;-80
2024/02/19 17:51:54;;;;;;;43.78;23.83;;;;;;;7.95;100.00;101138.41;10446885;28;20049;-80
2024/02/19 17:57:01;;;;;;;45.08;23.42;;;;;;;8.19;100.00;101136.13;10423590;28;20569;-81
2024/02/19 18:02:04;;;;;;;49.72;25.30;;;;;;;8.30;100.00;101135.47;10448200;28;20045;-81
2024/02/19 18:07:07;;;;;;;44.65;23.70;;;;;;;8.43;100.00;101136.47;10425207;28;20506;-82
2024/02/19 18:12:12;;;;;;;43.50;24.90;;;;;;;8.39;100.00;101135.81;10435306;28;20056;-82
2024/02/19 18:17:15;;;;;;;39.95;23.42;;;;;;;8.02;100.00;101133.56;10458101;28;20053;-82
2024/02/19 18:22:18;;;;;;;40.60;21.10;;;;;;;8.23;100.00;101124.28;10442220;28;20049;-82
2024/02/19 18:27:22;;;;;;;39.83;21.00;;;;;;;8.24;100.00;101128.69;10427763;28;20052;-83
2024/02/19 18:32:26;;;;;;;36.28;21.10;;;;;;;8.09;100.00;101135.81;10425416;28;20277;-82
2024/02/19 18:37:29;;;;;;;33.50;18.08;;;;;;;8.11;100.00;101139.22;10429203;28;20048;-82
2024/02/19 18:42:34;;;;;;;31.67;17.98;;;;;;;7.97;100.00;101136.50;10433679;28;20060;-79
2024/02/19 18:47:39;;;;;;;29.15;15.80;;;;;;;8.06;100.00;101140.47;10409591;28;20060;-80
2024/02/19 18:52:42;;;;;;;28.42;15.75;;;;;;;7.67;100.00;101141.81;10407795;28;20053;-79
2024/02/19 18:57:47;;;;;;;21.17;10.77;;;;;;;7.90;100.00;101138.69;10441137;28;20069;-81
2024/02/19 19:02:56;;;;;;;21.85;12.80;;;;;;;7.70;100.00;101134.47;10420276;28;20067;-81
2024/02/19 19:08:00;;;;;;;21.67;9.95;;;;;;;7.79;100.00;101135.78;10422749;28;20048;-81
2024/02/19 19:13:04;;;;;;;24.83;12.75;;;;;;;7.43;100.00;101144.06;10430029;28;20153;-81
2024/02/19 19:18:09;;;;;;;16.02;9.70;;;;;;;7.13;100.00;101146.59;10445189;28;20045;-81
2024/02/19 19:23:12;;;;;;;18.38;8.93;;;;;;;6.99;100.00;101144.69;10433200;28;1139998;-79
2024/02/19 19:28:17;;;;;;;15.75;9.25;;;;;;;6.91;100.00;101138.91;10455373;28;20048;-80
2024/02/19 19:33:20;;;;;;;13.02;7.25;;;;;;;6.79;100.00;101148.41;10457605;28;20045;-81
2024/02/19 19:38:23;;;;;;;18.55;8.20;;;;;;;6.90;100.00;101143.38;10464862;28;20048;-81
2024/02/19 19:43:27;;;;;;;16.88;8.30;;;;;;;6.71;100.00;101143.47;10460967;28;20051;-79
2024/02/19 19:48:30;;;;;;;13.90;7.43;;;;;;;6.75;100.00;101141.50;10451133;28;20049;-80
2024/02/19 19:53:34;;;;;;;15.65;8.65;;;;;;;6.52;100.00;101148.03;10459085;28;20865;-81
2024/02/19 19:58:38;;;;;;;15.23;8.50;;;;;;;6.69;100.00;101136.47;10476476;28;20108;-80
2024/02/19 20:03:41;;;;;;;16.70;9.75;;;;;;;6.45;100.00;101141.31;10457367;28;20066;-79
2024/02/19 20:08:47;;;;;;;15.77;7.68;;;;;;;6.72;100.00;101144.31;10476485;28;20051;-79
2024/02/19 20:13:51;;;;;;;16.17;7.88;;;;;;;6.44;100.00;101136.91;10460681;28;20053;-80
2024/02/19 20:18:55;;;;;;;15.43;8.68;;;;;;;6.47;100.00;101134.06;10475218;28;20060;-80
2024/02/19 20:24:00;;;;;;;22.95;9.65;;;;;;;6.54;100.00;101132.81;10463986;28;20072;-80
2024/02/19 20:29:06;;;;;;;22.65;9.73;;;;;;;6.79;100.00;101138.56;10480247;28;20045;-79
2024/02/19 20:34:12;;;;;;;22.20;11.10;;;;;;;6.62;100.00;101136.81;10470800;28;20048;-78
2024/02/19 20:39:16;;;;;;;18.77;9.60;;;;;;;6.88;100.00;101139.91;10474143;28;20429;-79
2024/02/19 20:44:20;;;;;;;23.90;11.00;;;;;;;6.82;100.00;101150.91;10456618;28;20045;-81
2024/02/19 20:49:23;;;;;;;22.63;10.25;;;;;;;6.93;100.00;101150.38;10466531;28;20084;-79
2024/02/19 20:54:26;;;;;;;19.60;11.00;;;;;;;6.91;100.00;101152.25;10455357;28;20346;-81
2024/02/19 20:59:31;;;;;;;18.67;9.65;;;;;;;6.83;100.00;101150.84;10435277;28;20984;-79
2024/02/19 21:04:36;;;;;;;19.42;9.43;;;;;;;6.89;100.00;101163.03;10435668;28;20049;-80
2024/02/19 21:09:40;;;;;;;17.77;9.20;;;;;;;6.91;100.00;101166.50;10438532;28;20041;-81
2024/02/19 21:14:44;;;;;;;13.70;8.00;;;;;;;6.84;100.00;101173.91;10421310;28;20049;-81
2024/02/19 21:19:47;;;;;;;12.63;7.70;;;;;;;6.86;100.00;101173.84;10437694;28;26280;-82
2024/02/19 21:24:50;;;;;;;15.48;7.50;;;;;;;6.77;100.00;101187.66;10432090;28;20057;-82
2024/02/19 21:29:56;;;;;;;12.10;8.10;;;;;;;7.00;100.00;101183.84;10433318;28;20049;-82
2024/02/19 21:34:59;;;;;;;12.48;6.90;;;;;;;6.97;100.00;101195.53;10436458;28;20045;-81
2024/02/19 21:40:04;;;;;;;12.88;6.57;;;;;;;7.04;100.00;101199.59;10433433;28;20767;-79
2024/02/19 21:45:10;;;;;;;10.70;6.60;;;;;;;7.17;100.00;101188.25;10438945;28;20119;-80
2024/02/19 21:50:13;;;;;;;13.30;7.47;;;;;;;7.20;100.00;101193.44;10445588;28;20052;-80
2024/02/19 21:55:17;;;;;;;12.02;7.45;;;;;;;7.20;100.00;101204.97;10451246;28;20048;-80
2024/02/19 22:00:21;;;;;;;8.98;6.32;;;;;;;7.39;100.00;101193.31;10453641;28;20139;-80
2024/02/19 22:05:24;;;;;;;12.85;6.93;;;;;;;7.27;100.00;101203.72;10459504;28;20059;-80
2024/02/19 22:10:27;;;;;;;9.77;6.22;;;;;;;7.34;100.00;101217.59;10456533;28;20106;-80
2024/02/19 22:15:35;;;;;;;10.57;6.25;;;;;;;7.46;100.00;101218.72;10454069;28;20048;-80
2024/02/19 22:20:38;;;;;;;12.85;6.63;;;;;;;7.42;100.00;101227.88;10462050;28;20059;-80
2024/02/19 22:25:41;;;;;;;11.25;7.57;;;;;;;7.53;100.00;101227.28;10465076;28;20055;-80
2024/02/19 22:30:45;;;;;;;14.38;6.85;;;;;;;7.62;100.00;101229.44;10459332;28;20045;-80
2024/02/19 22:35:48;;;;;;;13.75;6.75;;;;;;;7.54;100.00;101235.22;10436481;28;20083;-82
2024/02/19 22:40:51;;;;;;;11.15;6.57;;;;;;;7.60;100.00;101234.91;10430997;28;20052;-80
2024/02/19 22:45:56;;;;;;;12.07;6.68;;;;;;;7.22;100.00;101253.88;10432068;28;20452;-82
2024/02/19 22:50:59;;;;;;;10.88;5.55;;;;;;;6.67;100.00;101242.50;10419579;28;20056;-82
2024/02/19 22:56:01;;;;;;;15.60;6.38;;;;;;;6.76;100.00;101226.88;10417344;28;20048;-81
2024/02/19 23:01:06;;;;;;;12.00;6.18;;;;;;;6.92;100.00;101237.66;10437902;28;20045;-80
2024/02/19 23:06:09;;;;;;;14.10;5.55;;;;;;;7.03;100.00;101247.78;10444837;28;20046;-81